createdAt,value
2023-04-24T00:13:48.474Z,10.08
2023-04-24T00:28:49.039Z,10.15
2023-04-24T00:43:49.078Z,10.15
2023-04-24T00:58:49.216Z,10.14
2023-04-24T01:13:49.698Z,10.25
2023-04-24T01:28:50.381Z,10.52
2023-04-24T01:43:50.553Z,10.84
2023-04-24T01:58:50.487Z,11.04
2023-04-24T02:13:50.628Z,10.88
2023-04-24T02:28:50.829Z,10.74
2023-04-24T02:43:50.966Z,10.89
2023-04-24T02:58:51.265Z,11.19
2023-04-24T03:13:51.732Z,11.24
2023-04-24T03:28:52.436Z,11.49
2023-04-24T03:43:52.380Z,11.57
2023-04-24T03:58:52.726Z,11.61
2023-04-24T04:13:52.594Z,11.65
2023-04-24T04:28:52.739Z,11.70
2023-04-24T04:43:52.763Z,11.75
2023-04-24T04:58:53.128Z,11.83
2023-04-24T05:13:53.345Z,12.78
2023-04-24T05:28:53.342Z,13.89
2023-04-24T05:43:53.596Z,14.45
2023-04-24T05:58:54.004Z,15.34
2023-04-24T06:13:53.996Z,16.76
2023-04-24T06:28:53.957Z,17.46
2023-04-24T06:43:54.262Z,17.18
2023-04-24T06:58:54.651Z,17.59
2023-04-24T07:13:54.882Z,17.81
2023-04-24T07:28:55.039Z,20.42
2023-04-24T07:43:54.989Z,19.25
2023-04-24T07:58:55.143Z,20.26
2023-04-24T08:13:55.246Z,20.08
2023-04-24T08:28:55.360Z,19.74
2023-04-24T08:43:55.479Z,20.36
2023-04-24T08:58:55.858Z,19.63
2023-04-24T09:13:55.980Z,19.26
2023-04-24T09:28:56.355Z,19.18
2023-04-24T09:43:56.610Z,20.05
2023-04-24T09:58:57.050Z,19.02
2023-04-24T10:13:57.444Z,18.75
2023-04-24T10:28:57.225Z,18.39
2023-04-24T10:43:57.369Z,17.93
2023-04-24T10:58:57.725Z,18.92
2023-04-24T11:13:57.985Z,19.84
2023-04-24T11:43:58.412Z,19.13
2023-04-24T11:58:58.497Z,18.72
2023-04-24T12:13:58.757Z,18.70
2023-04-24T12:28:58.899Z,18.05
2023-04-24T12:43:59.001Z,17.93
2023-04-24T12:58:59.148Z,19.00
2023-04-24T13:14:00.499Z,19.25
2023-04-24T13:29:00.859Z,21.09
2023-04-24T13:44:01.032Z,22.62
2023-04-24T13:59:00.999Z,20.95
2023-04-24T14:14:01.386Z,21.75
2023-04-24T14:29:11.647Z,22.36
2023-04-24T14:44:06.768Z,22.15
2023-04-24T14:59:07.260Z,21.12
2023-04-24T15:14:08.578Z,20.67
2023-04-24T15:29:10.424Z,18.35
2023-04-24T15:44:10.233Z,17.41
2023-04-24T15:59:10.364Z,19.08
2023-04-24T16:14:10.945Z,18.37
2023-04-24T16:29:11.919Z,16.67
2023-04-24T16:44:11.991Z,15.44
2023-04-24T16:59:12.638Z,14.47
2023-04-24T17:14:13.308Z,14.00
2023-04-24T17:29:15.418Z,13.52
2023-04-24T17:44:15.662Z,12.95
2023-04-24T17:59:16.333Z,12.57
2023-04-24T18:14:16.593Z,12.19
2023-04-24T18:29:16.846Z,11.37
2023-04-24T18:44:17.101Z,10.64
2023-04-24T18:59:17.185Z,10.33
2023-04-24T19:14:17.287Z,10.01
2023-04-24T19:29:17.448Z,9.96
2023-04-24T19:44:17.533Z,9.87
2023-04-24T19:59:17.837Z,9.87
2023-04-24T20:14:18.148Z,9.78
2023-04-24T20:29:18.816Z,9.60
2023-04-24T20:44:18.789Z,9.40
2023-04-24T20:59:19.263Z,9.46
2023-04-24T21:14:19.350Z,9.38
2023-04-24T21:29:19.265Z,9.29
2023-04-24T21:44:19.355Z,9.36
2023-04-24T21:59:19.740Z,9.20
2023-04-24T22:14:19.990Z,9.31
2023-04-24T22:29:20.178Z,9.31
2023-04-24T22:44:20.484Z,9.01
2023-04-24T22:59:20.714Z,8.92
2023-04-24T23:14:21.958Z,8.80
2023-04-24T23:29:21.961Z,8.84
2023-04-24T23:44:21.964Z,8.91
2023-04-24T23:59:22.544Z,9.05
